createdAt,value
2022-08-27T00:01:44.855Z,98081.38
2022-08-27T00:04:11.408Z,98082.59
2022-08-27T00:06:37.898Z,98083.38
2022-08-27T00:09:04.939Z,98079.38
2022-08-27T00:11:31.344Z,98091.41
2022-08-27T00:13:57.721Z,98089.78
2022-08-27T00:16:24.540Z,98080.59
2022-08-27T00:18:50.950Z,98076.97
2022-08-27T00:21:17.680Z,98082.56
2022-08-27T00:23:44.174Z,98075.81
2022-08-27T00:26:10.599Z,98077.41
2022-08-27T00:28:36.964Z,98083.00
2022-08-27T00:31:03.383Z,98087.06
2022-08-27T00:33:30.613Z,98090.63
2022-08-27T00:35:57.019Z,98081.78
2022-08-27T00:38:23.412Z,98094.22
2022-08-27T00:40:50.582Z,98093.00
2022-08-27T00:43:23.803Z,98095.41
2022-08-27T00:45:50.587Z,98086.97
2022-08-27T00:48:20.338Z,98091.00
2022-08-27T00:50:47.866Z,98091.00
2022-08-27T00:53:15.192Z,98096.63
2022-08-27T00:55:45.780Z,98083.84
2022-08-27T00:58:17.080Z,98097.84
2022-08-27T01:00:44.158Z,98091.03
2022-08-27T01:03:10.556Z,98103.47
2022-08-27T01:05:36.950Z,98100.66
2022-08-27T01:08:04.360Z,98095.06
2022-08-27T01:10:30.824Z,98095.09
2022-08-27T01:12:57.218Z,98099.50
2022-08-27T01:15:25.237Z,98095.91
2022-08-27T01:17:51.615Z,98101.88
2022-08-27T01:20:20.109Z,98103.13
2022-08-27T01:23:07.075Z,98094.31
2022-08-27T01:25:33.446Z,98108.75
2022-08-27T01:28:00.625Z,98107.13
2022-08-27T01:30:27.041Z,98103.50
2022-08-27T01:32:53.417Z,98107.50
2022-08-27T01:35:20.358Z,98110.34
2022-08-27T01:37:47.634Z,98111.53
2022-08-27T01:40:14.164Z,98106.31
2022-08-27T01:42:44.267Z,98115.94
2022-08-27T01:45:12.347Z,98114.34
2022-08-27T01:47:38.718Z,98118.34
2022-08-27T01:50:08.729Z,98118.34
2022-08-27T01:52:35.085Z,98117.56
2022-08-27T01:55:01.458Z,98123.19
2022-08-27T01:57:27.862Z,98121.19
2022-08-27T01:59:56.872Z,98121.63
2022-08-27T02:02:23.322Z,98126.44
2022-08-27T02:04:50.951Z,98125.59
2022-08-27T02:07:17.315Z,98124.03
2022-08-27T02:09:43.669Z,98123.59
2022-08-27T02:12:10.193Z,98127.63
2022-08-27T02:14:36.593Z,98124.81
2022-08-27T02:17:03.038Z,98126.03
2022-08-27T02:19:29.401Z,98125.25
2022-08-27T02:22:00.079Z,98126.03
2022-08-27T02:24:27.920Z,98126.03
2022-08-27T02:26:55.215Z,98119.59
2022-08-27T02:29:21.721Z,98122.41
2022-08-27T02:31:48.139Z,98117.63
2022-08-27T02:34:14.801Z,98118.44
2022-08-27T02:36:41.219Z,98116.81
2022-08-27T02:39:07.577Z,98108.81
2022-08-27T02:41:33.976Z,98113.25
2022-08-27T02:44:01.402Z,98118.44
2022-08-27T02:46:28.942Z,98113.63
2022-08-27T02:48:55.350Z,98118.03
2022-08-27T02:51:21.742Z,98120.03
2022-08-27T02:53:48.416Z,98121.25
2022-08-27T02:56:14.950Z,98122.03
2022-08-27T02:58:48.026Z,98126.84
2022-08-27T03:01:15.454Z,98126.84
2022-08-27T03:03:42.010Z,98124.03
2022-08-27T03:06:08.432Z,98129.28
2022-08-27T03:08:52.047Z,98125.66
2022-08-27T03:11:19.555Z,98115.66
2022-08-27T03:13:45.960Z,98124.47
2022-08-27T03:16:12.353Z,98124.47
2022-08-27T03:18:38.750Z,98126.47
2022-08-27T03:21:05.236Z,98121.66
2022-08-27T03:23:34.608Z,98132.03
2022-08-27T03:26:01.818Z,98125.66
2022-08-27T03:28:29.129Z,98126.88
2022-08-27T03:30:58.463Z,98126.47
2022-08-27T03:33:24.902Z,98126.84
2022-08-27T03:35:52.157Z,98127.66
2022-08-27T03:38:18.629Z,98132.03
2022-08-27T03:40:45.000Z,98139.28
2022-08-27T03:43:15.344Z,98128.84
2022-08-27T03:46:00.694Z,98130.84
2022-08-27T03:48:28.197Z,98136.84
2022-08-27T03:50:54.562Z,98130.84
2022-08-27T03:53:20.942Z,98124.84
2022-08-27T03:55:47.588Z,98124.06
2022-08-27T03:58:13.984Z,98131.25
2022-08-27T04:00:40.395Z,98130.03
2022-08-27T04:03:06.922Z,98136.06
2022-08-27T04:05:33.660Z,98121.63
2022-08-27T04:08:00.549Z,98130.00
2022-08-27T04:10:27.390Z,98134.06
2022-08-27T04:12:59.314Z,98129.59
2022-08-27T04:15:25.674Z,98127.19
2022-08-27T04:17:52.057Z,98132.00
2022-08-27T04:20:34.467Z,98132.00
2022-08-27T04:23:01.669Z,98126.03
2022-08-27T04:25:28.371Z,98124.00
2022-08-27T04:27:54.751Z,98126.78
2022-08-27T04:30:21.331Z,98136.00
2022-08-27T04:32:47.805Z,98135.59
2022-08-27T04:35:14.171Z,98138.00
2022-08-27T04:37:40.537Z,98130.78
2022-08-27T04:40:07.151Z,98146.38
2022-08-27T04:42:33.614Z,98138.38
2022-08-27T04:44:59.961Z,98136.00
2022-08-27T04:47:26.337Z,98143.19
2022-08-27T04:49:52.691Z,98143.59
2022-08-27T04:52:19.758Z,98140.78
2022-08-27T04:54:46.125Z,98145.59
2022-08-27T04:57:12.497Z,98136.00
2022-08-27T04:59:38.986Z,98136.00
2022-08-27T05:02:06.366Z,98140.00
2022-08-27T05:04:34.166Z,98142.78
2022-08-27T05:07:02.128Z,98144.00
2022-08-27T05:09:28.503Z,98141.19
2022-08-27T05:11:56.240Z,98137.59
2022-08-27T05:14:24.028Z,98129.97
2022-08-27T05:16:50.401Z,98135.19
2022-08-27T05:19:16.795Z,98132.78
2022-08-27T05:21:45.374Z,98138.78
2022-08-27T05:24:11.768Z,98142.41
2022-08-27T05:26:38.122Z,98141.56
2022-08-27T05:29:05.187Z,98131.97
2022-08-27T05:31:31.592Z,98147.97
2022-08-27T05:33:58.069Z,98139.19
2022-08-27T05:36:28.504Z,98145.59
2022-08-27T05:38:55.049Z,98140.78
2022-08-27T05:41:25.469Z,98145.59
2022-08-27T05:43:59.053Z,98146.41
2022-08-27T05:46:25.732Z,98146.41
2022-08-27T05:48:52.864Z,98151.19
2022-08-27T05:51:25.849Z,98154.41
2022-08-27T05:53:55.216Z,98146.78
2022-08-27T05:56:22.095Z,98155.22
2022-08-27T05:59:07.142Z,98161.59
2022-08-27T06:01:36.203Z,98162.38
2022-08-27T06:04:03.152Z,98157.63
2022-08-27T06:06:29.558Z,98154.00
2022-08-27T06:08:55.978Z,98153.22
2022-08-27T06:11:22.992Z,98152.00
2022-08-27T06:13:49.366Z,98145.59
2022-08-27T06:16:16.552Z,98164.03
2022-08-27T06:18:44.324Z,98151.28
2022-08-27T06:21:10.841Z,98155.25
2022-08-27T06:23:37.350Z,98152.06
2022-08-27T06:26:07.461Z,98148.06
2022-08-27T06:28:34.324Z,98158.06
2022-08-27T06:31:03.911Z,98159.28
2022-08-27T06:33:30.983Z,98155.69
2022-08-27T06:36:00.603Z,98158.50
2022-08-27T06:38:27.336Z,98158.09
2022-08-27T06:40:53.946Z,98159.31
2022-08-27T06:43:24.964Z,98159.25
2022-08-27T06:45:51.622Z,98159.69
2022-08-27T06:48:18.287Z,98174.09
2022-08-27T06:50:44.686Z,98176.09
2022-08-27T06:53:11.220Z,98184.09
2022-08-27T06:55:41.597Z,98178.88
2022-08-27T06:58:08.005Z,98182.47
2022-08-27T07:00:34.436Z,98170.91
2022-08-27T07:03:01.623Z,98190.53
2022-08-27T07:05:27.990Z,98184.50
2022-08-27T07:07:54.433Z,98181.72
2022-08-27T07:10:20.813Z,98191.31
2022-08-27T07:12:47.190Z,98190.09
2022-08-27T07:15:13.577Z,98191.31
2022-08-27T07:17:41.103Z,98198.53
2022-08-27T07:20:08.422Z,98201.34
2022-08-27T07:22:34.872Z,98190.53
2022-08-27T07:25:01.268Z,98200.16
2022-08-27T07:27:27.637Z,98196.16
2022-08-27T07:29:54.104Z,98196.94
2022-08-27T07:32:20.465Z,98206.16
2022-08-27T07:34:46.826Z,98193.75
2022-08-27T07:37:13.761Z,98209.38
2022-08-27T07:39:40.160Z,98203.38
2022-08-27T07:42:25.391Z,98207.34
2022-08-27T07:44:51.797Z,98214.16
2022-08-27T07:47:18.522Z,98220.19
2022-08-27T07:49:44.906Z,98219.38
2022-08-27T07:52:11.705Z,98216.19
2022-08-27T07:54:38.105Z,98214.16
2022-08-27T07:57:04.860Z,98218.16
2022-08-27T07:59:31.247Z,98214.56
2022-08-27T08:01:57.697Z,98213.38
2022-08-27T08:04:24.234Z,98212.19
2022-08-27T08:06:50.957Z,98213.41
2022-08-27T08:09:17.348Z,98214.59
2022-08-27T08:11:43.708Z,98209.78
2022-08-27T08:14:10.103Z,98216.97
2022-08-27T08:16:36.514Z,98219.81
2022-08-27T08:19:02.979Z,98214.59
2022-08-27T08:21:29.373Z,98212.56
2022-08-27T08:23:55.758Z,98218.59
2022-08-27T08:26:23.012Z,98215.41
2022-08-27T08:28:49.375Z,98213.38
2022-08-27T08:31:15.843Z,98214.59
2022-08-27T08:33:42.281Z,98218.19
2022-08-27T08:36:10.747Z,98224.63
2022-08-27T08:38:37.514Z,98219.81
2022-08-27T08:41:04.074Z,98227.03
2022-08-27T08:43:33.534Z,98224.63
2022-08-27T08:46:03.111Z,98230.22
2022-08-27T08:48:29.673Z,98223.00
2022-08-27T08:51:03.394Z,98219.41
2022-08-27T08:53:33.231Z,98231.44
2022-08-27T08:56:01.538Z,98233.00
2022-08-27T08:58:27.907Z,98236.22
2022-08-27T09:00:57.850Z,98239.81
2022-08-27T09:03:24.328Z,98231.38
2022-08-27T09:05:54.758Z,98228.53
2022-08-27T09:08:34.073Z,98231.34
2022-08-27T09:11:07.607Z,98229.69
2022-08-27T09:13:38.953Z,98240.53
2022-08-27T09:16:05.571Z,98232.97
2022-08-27T09:18:35.047Z,98230.56
2022-08-27T09:21:09.019Z,98234.50
2022-08-27T09:23:57.278Z,98238.97
2022-08-27T09:26:24.633Z,98235.38
2022-08-27T09:29:14.747Z,98232.91
2022-08-27T09:31:41.155Z,98228.91
2022-08-27T09:34:07.512Z,98229.75
2022-08-27T09:36:33.893Z,98225.28
2022-08-27T09:39:05.403Z,98229.22
2022-08-27T09:41:41.771Z,98227.19
2022-08-27T09:44:11.719Z,98223.91
2022-08-27T09:46:38.082Z,98228.75
2022-08-27T09:49:11.152Z,98230.00
2022-08-27T09:51:38.902Z,98231.28
2022-08-27T09:54:06.403Z,98228.13
2022-08-27T09:56:47.252Z,98223.66
2022-08-27T09:59:22.650Z,98227.19
2022-08-27T10:01:51.984Z,98230.34
2022-08-27T10:04:23.986Z,98241.50
2022-08-27T10:06:50.642Z,98233.44
2022-08-27T10:09:17.239Z,98239.09
2022-08-27T10:12:10.054Z,98233.09
2022-08-27T10:14:43.749Z,98234.41
2022-08-27T10:17:28.731Z,98234.03
2022-08-27T10:20:05.700Z,98229.97
2022-08-27T10:22:41.325Z,98232.03
2022-08-27T10:25:26.029Z,98225.19
2022-08-27T10:27:55.432Z,98232.75
2022-08-27T10:30:25.875Z,98233.50
2022-08-27T10:33:02.924Z,98230.38
2022-08-27T10:35:40.640Z,98235.19
2022-08-27T10:38:22.758Z,98233.22
2022-08-27T10:40:51.752Z,98234.00
2022-08-27T10:43:24.374Z,98246.44
2022-08-27T10:45:53.355Z,98242.28
2022-08-27T10:48:24.439Z,98247.13
2022-08-27T10:50:59.661Z,98242.81
2022-08-27T10:53:29.093Z,98241.91
2022-08-27T10:55:59.460Z,98253.25
2022-08-27T10:58:32.732Z,98262.63
2022-08-27T11:00:59.409Z,98253.03
2022-08-27T11:03:33.391Z,98255.88
2022-08-27T11:06:00.696Z,98261.88
2022-08-27T11:08:49.806Z,98253.84
2022-08-27T11:12:03.267Z,98250.63
2022-08-27T11:14:09.525Z,98261.00
2022-08-27T11:16:42.227Z,98257.38
2022-08-27T11:19:46.827Z,98260.19
2022-08-27T11:22:17.983Z,98262.63
2022-08-27T11:24:55.430Z,98262.25
2022-08-27T11:27:23.276Z,98257.88
2022-08-27T11:30:00.273Z,98260.69
2022-08-27T11:32:45.756Z,98257.09
2022-08-27T11:35:16.382Z,98255.91
2022-08-27T11:37:46.649Z,98259.91
2022-08-27T11:40:23.515Z,98265.91
2022-08-27T11:42:51.675Z,98265.50
2022-08-27T11:45:24.652Z,98261.91
2022-08-27T11:47:51.960Z,98263.50
2022-08-27T11:50:19.341Z,98263.91
2022-08-27T11:52:56.906Z,98272.75
2022-08-27T11:55:25.007Z,98267.09
2022-08-27T11:58:02.371Z,98265.53
2022-08-27T12:00:30.331Z,98270.75
2022-08-27T12:03:16.933Z,98265.91
2022-08-27T12:05:47.504Z,98265.91
2022-08-27T12:08:16.603Z,98275.53
2022-08-27T12:11:03.608Z,98275.50
2022-08-27T12:13:42.629Z,98277.91
2022-08-27T12:16:18.219Z,98279.13
2022-08-27T12:19:04.278Z,98275.97
2022-08-27T12:21:39.940Z,98279.53
2022-08-27T12:24:12.425Z,98277.56
2022-08-27T12:26:40.055Z,98279.13
2022-08-27T12:29:18.567Z,98276.34
2022-08-27T12:31:45.893Z,98280.31
2022-08-27T12:34:16.030Z,98284.28
2022-08-27T12:36:47.042Z,98288.28
2022-08-27T12:39:14.464Z,98291.91
2022-08-27T12:41:45.057Z,98286.72
2022-08-27T12:44:12.716Z,98277.44
2022-08-27T12:46:46.178Z,98286.69
2022-08-27T12:49:37.046Z,98288.28
2022-08-27T12:51:59.163Z,98292.66
2022-08-27T12:54:38.642Z,98289.84
2022-08-27T12:57:11.792Z,98289.03
2022-08-27T12:59:44.099Z,98286.63
2022-08-27T13:02:13.517Z,98286.22
2022-08-27T13:04:40.121Z,98282.97
2022-08-27T13:07:06.577Z,98289.78
2022-08-27T13:09:33.822Z,98284.09
2022-08-27T13:12:00.447Z,98283.66
2022-08-27T13:14:27.783Z,98282.97
2022-08-27T13:17:05.690Z,98293.03
2022-08-27T13:19:35.947Z,98285.31
2022-08-27T13:22:05.047Z,98289.72
2022-08-27T13:24:32.685Z,98279.69
2022-08-27T13:26:59.163Z,98282.09
2022-08-27T13:29:25.625Z,98289.34
2022-08-27T13:31:52.058Z,98288.19
2022-08-27T13:34:19.627Z,98286.16
2022-08-27T13:36:54.617Z,98282.41
2022-08-27T13:39:20.982Z,98292.88
2022-08-27T13:41:47.353Z,98291.28
2022-08-27T13:44:14.486Z,98288.84
2022-08-27T13:46:46.500Z,98285.72
2022-08-27T13:49:14.297Z,98279.69
2022-08-27T13:51:40.724Z,98286.84
2022-08-27T13:54:17.628Z,98277.25
2022-08-27T13:56:47.029Z,98274.47
2022-08-27T13:59:19.386Z,98279.34
2022-08-27T14:02:04.566Z,98275.69
2022-08-27T14:04:35.671Z,98279.28
2022-08-27T14:07:06.855Z,98276.25
2022-08-27T14:09:34.360Z,98277.47
2022-08-27T14:12:04.982Z,98272.31
2022-08-27T14:14:35.923Z,98273.13
2022-08-27T14:17:02.696Z,98271.41
2022-08-27T14:19:33.164Z,98281.84
2022-08-27T14:21:59.902Z,98274.44
2022-08-27T14:24:28.957Z,98276.09
2022-08-27T14:26:56.207Z,98279.75
2022-08-27T14:29:22.956Z,98288.09
2022-08-27T14:31:49.555Z,98286.09
2022-08-27T14:34:16.704Z,98284.47
2022-08-27T14:36:44.370Z,98286.56
2022-08-27T14:39:11.665Z,98290.03
2022-08-27T14:41:38.446Z,98291.28
2022-08-27T14:44:07.100Z,98281.50
2022-08-27T14:46:41.433Z,98282.41
2022-08-27T14:49:14.144Z,98283.53
2022-08-27T14:51:41.205Z,98287.69
2022-08-27T14:54:07.597Z,98282.19
2022-08-27T14:56:33.970Z,98280.53
2022-08-27T14:59:00.417Z,98275.94
2022-08-27T15:01:27.131Z,98290.47
2022-08-27T15:03:54.381Z,98282.81
2022-08-27T15:06:22.384Z,98289.59
2022-08-27T15:08:50.567Z,98287.94
2022-08-27T15:11:43.443Z,98283.13
2022-08-27T15:14:11.512Z,98281.25
2022-08-27T15:16:39.277Z,98280.44
2022-08-27T15:19:07.096Z,98280.81
2022-08-27T15:21:33.790Z,98277.06
2022-08-27T15:24:01.193Z,98280.19
2022-08-27T15:26:28.131Z,98295.09
2022-08-27T15:28:54.501Z,98282.66
2022-08-27T15:31:20.942Z,98287.31
2022-08-27T15:33:47.361Z,98277.72
2022-08-27T15:36:13.834Z,98281.84
2022-08-27T15:38:40.194Z,98282.78
2022-08-27T15:41:06.593Z,98282.88
2022-08-27T15:43:33.085Z,98280.44
2022-08-27T15:45:59.498Z,98285.19
2022-08-27T15:48:25.890Z,98274.63
2022-08-27T15:50:52.774Z,98283.38
2022-08-27T15:53:19.522Z,98281.88
2022-08-27T15:55:45.902Z,98281.47
2022-08-27T15:58:12.973Z,98281.09
2022-08-27T16:00:39.864Z,98286.03
2022-08-27T16:03:07.323Z,98287.34
2022-08-27T16:05:36.200Z,98293.72
2022-08-27T16:08:02.696Z,98275.28
2022-08-27T16:10:29.070Z,98281.72
2022-08-27T16:12:55.544Z,98287.66
2022-08-27T16:15:22.020Z,98277.63
2022-08-27T16:17:49.297Z,98289.31
2022-08-27T16:20:15.705Z,98280.44
2022-08-27T16:22:42.183Z,98285.75
2022-08-27T16:25:09.125Z,98275.66
2022-08-27T16:27:37.426Z,98278.13
2022-08-27T16:30:05.377Z,98280.50
2022-08-27T16:32:31.737Z,98269.25
2022-08-27T16:34:58.125Z,98289.34
2022-08-27T16:37:34.351Z,98287.34
2022-08-27T16:40:08.297Z,98281.22
2022-08-27T16:42:44.534Z,98276.00
2022-08-27T16:45:35.790Z,98278.00
2022-08-27T16:48:24.978Z,98283.94
2022-08-27T16:51:17.263Z,98284.16
2022-08-27T16:53:54.869Z,98276.44
2022-08-27T16:59:10.089Z,98281.72
2022-08-27T17:01:38.252Z,98273.25
2022-08-27T17:04:31.328Z,98290.53
2022-08-27T17:07:10.085Z,98292.56
2022-08-27T17:09:40.373Z,98289.78
2022-08-27T17:12:19.295Z,98286.22
2022-08-27T17:15:09.489Z,98289.47
2022-08-27T17:17:38.126Z,98290.72
2022-08-27T17:20:29.970Z,98288.75
2022-08-27T17:23:25.915Z,98294.75
2022-08-27T17:26:03.860Z,98299.66
2022-08-27T17:29:09.614Z,98294.06
2022-08-27T17:31:50.416Z,98302.00
2022-08-27T17:34:29.428Z,98305.31
2022-08-27T17:39:42.309Z,98296.13
2022-08-27T17:42:09.317Z,98299.28
2022-08-27T17:44:35.919Z,98290.50
2022-08-27T17:47:03.017Z,98301.75
2022-08-27T17:49:31.063Z,98296.13
2022-08-27T17:51:58.475Z,98301.69
2022-08-27T17:54:27.258Z,98305.28
2022-08-27T17:56:53.639Z,98302.56
2022-08-27T17:59:20.387Z,98307.41
2022-08-27T18:01:46.777Z,98305.84
2022-08-27T18:04:13.235Z,98309.06
2022-08-27T18:06:39.602Z,98315.91
2022-08-27T18:09:05.957Z,98322.78
2022-08-27T18:11:33.749Z,98321.59
2022-08-27T18:14:04.189Z,98316.44
2022-08-27T18:16:31.226Z,98316.81
2022-08-27T18:18:57.616Z,98322.47
2022-08-27T18:21:25.502Z,98319.66
2022-08-27T18:23:52.609Z,98320.88
2022-08-27T18:26:19.165Z,98321.25
2022-08-27T18:28:48.589Z,98321.22
2022-08-27T18:31:15.053Z,98328.03
2022-08-27T18:33:42.196Z,98332.44
2022-08-27T18:36:08.951Z,98329.22
2022-08-27T18:38:35.333Z,98334.84
2022-08-27T18:41:08.386Z,98326.84
2022-08-27T18:43:35.326Z,98339.25
2022-08-27T18:46:01.994Z,98339.66
2022-08-27T18:48:28.694Z,98338.06
2022-08-27T18:50:58.639Z,98343.25
2022-08-27T18:53:25.721Z,98345.28
2022-08-27T18:55:52.109Z,98344.09
2022-08-27T18:58:18.515Z,98349.31
2022-08-27T19:00:45.875Z,98350.88
2022-08-27T19:03:12.425Z,98352.50
2022-08-27T19:05:38.899Z,98346.88
2022-08-27T19:08:08.991Z,98348.50
2022-08-27T19:10:35.342Z,98346.88
2022-08-27T19:13:01.702Z,98354.91
2022-08-27T19:15:28.091Z,98355.75
2022-08-27T19:17:55.066Z,98349.31
2022-08-27T19:20:21.665Z,98343.72
2022-08-27T19:22:50.771Z,98350.94
2022-08-27T19:25:17.354Z,98352.97
2022-08-27T19:27:44.049Z,98346.94
2022-08-27T19:30:10.815Z,98353.34
2022-08-27T19:32:37.351Z,98353.75
2022-08-27T19:35:04.132Z,98348.56
2022-08-27T19:37:30.954Z,98353.34
2022-08-27T19:40:00.487Z,98350.56
2022-08-27T19:42:28.839Z,98354.56
2022-08-27T19:44:55.204Z,98361.38
2022-08-27T19:47:25.848Z,98357.38
2022-08-27T19:49:52.729Z,98361.41
2022-08-27T19:52:19.105Z,98362.16
2022-08-27T19:55:10.266Z,98357.38
2022-08-27T19:57:31.809Z,98362.97
2022-08-27T19:59:58.242Z,98358.56
2022-08-27T20:02:24.701Z,98367.00
2022-08-27T20:05:14.301Z,98366.19
2022-08-27T20:07:37.878Z,98372.59
2022-08-27T20:10:08.317Z,98377.44
2022-08-27T20:12:35.240Z,98371.81
2022-08-27T20:15:01.635Z,98378.63
2022-08-27T20:17:28.312Z,98376.63
2022-08-27T20:19:55.715Z,98372.59
2022-08-27T20:22:22.106Z,98370.97
2022-08-27T20:24:48.460Z,98372.56
2022-08-27T20:27:14.834Z,98375.78
2022-08-27T20:29:42.153Z,98372.16
2022-08-27T20:32:08.612Z,98370.56
2022-08-27T20:34:35.053Z,98371.34
2022-08-27T20:37:02.481Z,98372.16
2022-08-27T20:39:28.858Z,98384.97
2022-08-27T20:41:55.213Z,98382.97
2022-08-27T20:44:24.076Z,98384.56
2022-08-27T20:46:51.164Z,98385.34
2022-08-27T20:49:18.606Z,98386.19
2022-08-27T20:52:01.831Z,98390.13
2022-08-27T20:54:32.137Z,98392.94
2022-08-27T20:56:58.891Z,98388.50
2022-08-27T20:59:44.186Z,98382.09
2022-08-27T21:02:12.740Z,98392.91
2022-08-27T21:04:40.054Z,98394.47
2022-08-27T21:07:06.408Z,98390.47
2022-08-27T21:09:32.828Z,98382.47
2022-08-27T21:11:59.393Z,98388.50
2022-08-27T21:14:25.861Z,98392.09
2022-08-27T21:16:54.268Z,98401.69
2022-08-27T21:19:20.713Z,98398.88
2022-08-27T21:21:52.724Z,98400.44
2022-08-27T21:24:19.204Z,98395.63
2022-08-27T21:26:45.838Z,98398.38
2022-08-27T21:29:13.353Z,98393.59
2022-08-27T21:31:39.757Z,98393.13
2022-08-27T21:34:06.168Z,98401.91
2022-08-27T21:36:35.469Z,98395.91
2022-08-27T21:39:01.921Z,98405.91
2022-08-27T21:41:28.319Z,98400.19
2022-08-27T21:43:54.883Z,98398.16
2022-08-27T21:46:21.343Z,98400.56
2022-08-27T21:48:48.143Z,98397.78
2022-08-27T21:51:26.833Z,98408.53
2022-08-27T21:53:53.187Z,98406.13
2022-08-27T21:56:19.538Z,98413.63
2022-08-27T21:58:45.898Z,98408.41
2022-08-27T22:01:12.532Z,98410.78
2022-08-27T22:03:38.991Z,98412.66
2022-08-27T22:06:07.221Z,98414.31
2022-08-27T22:08:33.837Z,98412.72
2022-08-27T22:11:00.510Z,98413.06
2022-08-27T22:13:26.875Z,98416.16
2022-08-27T22:15:53.282Z,98419.00
2022-08-27T22:18:19.712Z,98421.03
2022-08-27T22:20:49.614Z,98420.22
2022-08-27T22:23:16.031Z,98423.06
2022-08-27T22:25:42.450Z,98422.19
2022-08-27T22:28:08.831Z,98424.63
2022-08-27T22:30:35.225Z,98431.44
2022-08-27T22:33:01.776Z,98423.88
2022-08-27T22:35:28.932Z,98428.25
2022-08-27T22:37:55.474Z,98428.94
2022-08-27T22:40:22.430Z,98424.16
2022-08-27T22:42:49.033Z,98434.97
2022-08-27T22:45:15.389Z,98427.69
2022-08-27T22:47:41.998Z,98441.31
2022-08-27T22:50:08.742Z,98439.31
2022-08-27T22:52:35.885Z,98431.72
2022-08-27T22:55:02.261Z,98439.69
2022-08-27T22:57:28.614Z,98438.91
2022-08-27T22:59:54.981Z,98441.69
2022-08-27T23:02:21.341Z,98433.59
2022-08-27T23:04:55.974Z,98438.69
2022-08-27T23:07:23.196Z,98445.97
2022-08-27T23:09:49.608Z,98438.78
2022-08-27T23:12:16.010Z,98445.50
2022-08-27T23:14:42.396Z,98439.44
2022-08-27T23:17:08.781Z,98440.25
2022-08-27T23:19:35.164Z,98436.47
2022-08-27T23:22:01.521Z,98427.66
2022-08-27T23:24:32.965Z,98430.88
2022-08-27T23:27:17.936Z,98424.00
2022-08-27T23:29:45.601Z,98412.31
2022-08-27T23:32:11.955Z,98417.41
2022-08-27T23:34:38.302Z,98421.75
2022-08-27T23:37:04.652Z,98418.13
2022-08-27T23:39:31.011Z,98406.63
2022-08-27T23:41:57.442Z,98411.19
2022-08-27T23:44:28.384Z,98416.91
2022-08-27T23:46:54.882Z,98408.81
2022-08-27T23:49:21.312Z,98414.44
2022-08-27T23:51:47.670Z,98411.19
2022-08-27T23:54:14.023Z,98411.09
2022-08-27T23:56:40.907Z,98405.25
2022-08-27T23:59:07.263Z,98407.28
